This is the latest recevied weather packets stored in our database for station/object GW1468. If no packets are shown the sender has not sent any weather packets the latest 10 day(s).
| Time | Temp. | Humidity | Pressure | Rain* | Wind** | Luminosity | Snow |
|---|---|---|---|---|---|---|---|
| 1777433447 | 15.56° C | 98% | - | 8.89 mm | - | - | - |
| 1777431256 | 16.11° C | 97% | - | 8.89 mm | - | - | - |
| 1777430213 | 16.11° C | 97% | - | 8.89 mm | - | - | - |
| 1777428392 | 16.67° C | 96% | - | 8.89 mm | - | - | - |
| 1777421908 | 17.78° C | 91% | - | 8.89 mm | - | - | - |
| 1777420098 | 18.89° C | 85% | - | 8.89 mm | - | - | - |
| 1777418667 | 21.11° C | 79% | - | 8.89 mm | - | - | - |
| 1777417608 | 21.67° C | 77% | - | 8.89 mm | - | - | - |
| 1777417237 | 22.78° C | 73% | - | 8.89 mm | - | - | - |
| 1777406074 | 23.33° C | 67% | - | 8.89 mm | - | - | - |
| 1777400331 | 22.22° C | 67% | - | 8.89 mm | - | - | - |
| 1777399601 | 22.22° C | 67% | - | 8.89 mm | - | - | - |
| 1777398136 | 22.22° C | 68% | - | 8.89 mm | - | - | - |
| 1777395648 | 21.11° C | 72% | - | 8.89 mm | - | - | - |
| 1777394924 | 20.56° C | 74% | - | 8.89 mm | - | - | - |
| 1777394204 | 20° C | 75% | - | 8.89 mm | - | - | - |
| 1777392753 | 19.44° C | 76% | - | 8.89 mm | - | - | - |
| 1777388784 | 17.22° C | 84% | - | 8.89 mm | - | - | - |
| 1777388451 | 17.22° C | 84% | - | 8.89 mm | - | - | - |
| 1777382664 | 15° C | 90% | - | 8.89 mm | - | - | - |
| 1777380158 | 13.33° C | 99% | - | 8.89 mm | - | - | - |
| 1777379789 | 13.33° C | 99% | - | 8.89 mm | - | - | - |
| 1777379443 | 13.33° C | 99% | - | 8.89 mm | - | - | - |
| 1777377651 | 12.78° C | 99% | - | 8.89 mm | - | - | - |
| 1777376930 | 12.78° C | 99% | - | 8.89 mm | - | - | - |
* Rain since midnight (hover to see other rain measurements)
** Current wind speed in m/s (hover to see current wind gust speed)